Time;durP1;ratioP1;P1;durP2;ratioP2;P2;SDS_P1;SDS_P2;PMS_P1;PMS_P2;Temp;Humidity;BMP_temperature;BMP_pressure;BME280_temperature;BME280_humidity;BME280_pressure;Samples;Min_cycle;Max_cycle;Signal;HPM_P1;HPM_P2
2022/11/01 00:02:04;;;;;;;;;;;11.50;99.90;;;;;;5055387;28;19912;-79
2022/11/01 00:04:29;;;;;;;;;;;11.50;99.90;;;;;;5056867;28;19914;-79
2022/11/01 00:06:55;;;;;;;;;;;11.50;99.90;;;;;;5054191;28;19958;-79
2022/11/01 00:09:20;;;;;;;;;;;11.50;99.90;;;;;;5054997;28;19920;-79
2022/11/01 00:11:45;;;;;;;;;;;11.60;99.90;;;;;;5058401;28;19908;-79
2022/11/01 00:14:12;;;;;;;;;;;11.60;99.90;;;;;;5057901;28;19916;-79
2022/11/01 00:16:38;;;;;;;;;;;11.70;99.90;;;;;;5056457;28;19921;-80
2022/11/01 00:19:03;;;;;;;;;;;11.70;99.90;;;;;;5060861;28;21603;-79
2022/11/01 00:21:28;;;;;;;;;;;11.70;99.90;;;;;;5054781;28;19919;-79
2022/11/01 00:23:54;;;;;;;;;;;11.70;99.90;;;;;;5052616;28;19905;-80
2022/11/01 00:26:20;;;;;;;;;;;11.80;99.90;;;;;;5066608;28;19917;-79
2022/11/01 00:28:46;;;;;;;;;;;11.90;99.90;;;;;;5057626;28;19912;-79
2022/11/01 00:31:12;;;;;;;;;;;12.00;99.90;;;;;;5061582;28;19915;-79
2022/11/01 00:33:38;;;;;;;;;;;12.10;99.90;;;;;;5066072;28;20311;-80
2022/11/01 00:36:04;;;;;;;;;;;12.10;99.90;;;;;;5061927;28;19935;-80
2022/11/01 00:38:29;;;;;;;;;;;12.20;99.90;;;;;;5062165;28;19904;-79
2022/11/01 00:40:56;;;;;;;;;;;12.30;99.90;;;;;;5066773;28;19987;-79
2022/11/01 00:43:22;;;;;;;;;;;12.30;99.90;;;;;;5055546;28;19921;-80
2022/11/01 00:45:47;;;;;;;;;;;12.40;99.90;;;;;;5053095;28;20003;-79
2022/11/01 00:48:13;;;;;;;;;;;12.40;99.90;;;;;;5062972;28;19915;-80
2022/11/01 00:50:38;;;;;;;;;;;12.50;99.90;;;;;;5057331;28;20338;-80
2022/11/01 00:53:04;;;;;;;;;;;12.60;99.90;;;;;;5069309;28;19908;-80
2022/11/01 00:55:30;;;;;;;;;;;12.60;99.90;;;;;;5040863;28;19970;-80
2022/11/01 00:57:55;;;;;;;;;;;12.60;99.90;;;;;;5063155;28;19913;-80
2022/11/01 01:00:21;;;;;;;;;;;12.60;99.90;;;;;;5055542;28;19912;-80
2022/11/01 01:02:46;;;;;;;;;;;12.70;99.90;;;;;;5051001;28;19913;-80
2022/11/01 01:05:12;;;;;;;;;;;12.70;99.90;;;;;;5063749;28;19970;-80
2022/11/01 01:07:37;;;;;;;;;;;12.70;99.90;;;;;;5061669;28;19999;-79
2022/11/01 01:10:03;;;;;;;;;;;12.70;99.90;;;;;;5060262;28;19935;-79
2022/11/01 01:12:29;;;;;;;;;;;12.70;99.90;;;;;;5057674;28;19909;-80
2022/11/01 01:14:54;;;;;;;;;;;12.80;99.90;;;;;;5055459;28;20311;-79
2022/11/01 01:17:20;;;;;;;;;;;12.70;99.90;;;;;;5058162;28;19913;-79
2022/11/01 01:19:45;;;;;;;;;;;12.80;99.90;;;;;;5066540;28;19920;-79
2022/11/01 01:22:10;;;;;;;;;;;12.80;99.90;;;;;;5070689;28;19958;-79
2022/11/01 01:24:36;;;;;;;;;;;12.80;99.90;;;;;;5067829;28;19932;-80
2022/11/01 01:27:02;;;;;;;;;;;12.80;99.90;;;;;;5058386;28;20339;-80
2022/11/01 01:29:28;;;;;;;;;;;12.80;99.90;;;;;;5069416;28;20003;-79
2022/11/01 01:31:53;;;;;;;;;;;12.90;99.90;;;;;;5073988;28;20334;-81
2022/11/01 01:34:18;;;;;;;;;;;12.90;99.90;;;;;;5056336;28;20001;-80
2022/11/01 01:36:45;;;;;;;;;;;12.90;99.90;;;;;;5068220;28;19923;-80
2022/11/01 01:39:10;;;;;;;;;;;13.00;99.90;;;;;;5060782;28;19912;-79
2022/11/01 01:44:39;;;;;;;;;;;12.90;99.90;;;;;;5059520;28;19920;-80
2022/11/01 01:47:04;;;;;;;;;;;12.90;99.90;;;;;;5070233;28;19917;-80
2022/11/01 01:49:29;;;;;;;;;;;13.00;99.90;;;;;;5065731;28;20401;-79
2022/11/01 01:51:55;;;;;;;;;;;12.90;99.90;;;;;;5059770;28;19924;-79
2022/11/01 01:54:20;;;;;;;;;;;12.80;99.90;;;;;;5050202;28;19916;-80
2022/11/01 01:56:46;;;;;;;;;;;12.80;99.90;;;;;;5059775;28;19908;-80
2022/11/01 01:59:11;;;;;;;;;;;12.70;99.90;;;;;;5065609;28;20375;-79
2022/11/01 02:01:38;;;;;;;;;;;12.70;99.90;;;;;;5065916;28;19912;-81
2022/11/01 02:04:05;;;;;;;;;;;12.70;99.90;;;;;;5054055;28;19916;-81
2022/11/01 02:06:32;;;;;;;;;;;12.70;99.90;;;;;;5050225;28;19979;-79
2022/11/01 02:08:58;;;;;;;;;;;12.70;99.90;;;;;;5069850;28;19965;-80
2022/11/01 02:11:24;;;;;;;;;;;12.80;99.90;;;;;;5069141;28;19912;-80
2022/11/01 02:13:50;;;;;;;;;;;12.80;99.90;;;;;;5058591;28;19913;-80
2022/11/01 02:16:30;;;;;;;;;;;12.70;99.90;;;;;;5058908;28;20295;-79
2022/11/01 02:19:02;;;;;;;;;;;12.70;99.90;;;;;;5065069;28;20387;-80
2022/11/01 02:21:43;;;;;;;;;;;12.70;99.90;;;;;;5073310;28;19917;-80
2022/11/01 02:24:08;;;;;;;;;;;12.70;99.90;;;;;;5058164;28;19909;-81
2022/11/01 02:26:43;;;;;;;;;;;12.80;99.90;;;;;;5055523;28;19915;-80
2022/11/01 02:29:14;;;;;;;;;;;12.80;99.90;;;;;;5071032;28;19915;-80
2022/11/01 02:31:58;;;;;;;;;;;12.70;99.90;;;;;;5070076;28;19936;-80
2022/11/01 02:34:34;;;;;;;;;;;12.80;99.90;;;;;;5058449;28;19920;-80
2022/11/01 02:37:13;;;;;;;;;;;12.80;99.90;;;;;;5068328;28;20257;-80
2022/11/01 02:39:41;;;;;;;;;;;12.80;99.90;;;;;;5054860;28;19920;-80
2022/11/01 02:42:21;;;;;;;;;;;12.70;99.90;;;;;;5041798;28;19928;-80
2022/11/01 02:44:50;;;;;;;;;;;12.70;99.90;;;;;;5059396;28;19915;-80
2022/11/01 02:47:15;;;;;;;;;;;12.70;99.90;;;;;;5061049;28;20007;-79
2022/11/01 02:49:44;;;;;;;;;;;12.70;99.90;;;;;;5058356;28;19999;-79
2022/11/01 02:52:12;;;;;;;;;;;12.60;99.90;;;;;;5062318;28;19958;-79
2022/11/01 02:54:38;;;;;;;;;;;12.70;99.90;;;;;;5057624;28;19913;-80
2022/11/01 02:57:16;;;;;;;;;;;12.60;99.90;;;;;;5060695;28;20356;-80
2022/11/01 02:59:43;;;;;;;;;;;12.60;99.90;;;;;;5054177;28;19970;-79
2022/11/01 03:02:13;;;;;;;;;;;12.60;99.90;;;;;;5068719;28;19911;-81
2022/11/01 03:04:38;;;;;;;;;;;12.60;99.90;;;;;;5060151;28;19909;-80
2022/11/01 03:07:06;;;;;;;;;;;12.60;99.90;;;;;;5056086;28;19904;-80
2022/11/01 03:09:32;;;;;;;;;;;12.60;99.90;;;;;;5061512;28;19919;-80
2022/11/01 03:12:00;;;;;;;;;;;12.70;99.90;;;;;;5055778;28;19905;-80
2022/11/01 03:14:38;;;;;;;;;;;12.70;99.90;;;;;;5059656;28;19919;-81
2022/11/01 03:17:03;;;;;;;;;;;12.70;99.90;;;;;;5057970;28;19967;-80
2022/11/01 03:19:35;;;;;;;;;;;12.60;99.90;;;;;;5052125;28;19909;-80
2022/11/01 03:22:12;;;;;;;;;;;12.60;99.90;;;;;;5055872;28;19909;-80
2022/11/01 03:24:42;;;;;;;;;;;12.60;99.90;;;;;;5059541;28;20342;-80
2022/11/01 03:27:12;;;;;;;;;;;12.60;99.90;;;;;;5061572;28;20026;-80
2022/11/01 03:29:40;;;;;;;;;;;12.70;99.90;;;;;;5065191;28;19935;-80
2022/11/01 03:32:06;;;;;;;;;;;12.60;99.90;;;;;;5055903;28;20279;-79
2022/11/01 03:34:32;;;;;;;;;;;12.60;99.90;;;;;;5063018;28;19912;-80
2022/11/01 03:37:00;;;;;;;;;;;12.60;99.90;;;;;;5052860;28;19913;-80
2022/11/01 03:39:40;;;;;;;;;;;12.60;99.90;;;;;;5061020;28;20054;-80
2022/11/01 03:42:08;;;;;;;;;;;12.50;99.90;;;;;;5056911;28;19912;-80
2022/11/01 03:44:36;;;;;;;;;;;12.60;99.90;;;;;;5036630;28;20344;-80
2022/11/01 03:47:02;;;;;;;;;;;12.60;99.90;;;;;;5055128;28;20345;-81
2022/11/01 03:49:28;;;;;;;;;;;12.60;99.90;;;;;;5058152;28;19915;-80
2022/11/01 03:51:53;;;;;;;;;;;12.60;99.90;;;;;;5063086;28;19908;-80
2022/11/01 03:54:18;;;;;;;;;;;12.60;99.90;;;;;;5056561;28;19909;-80
2022/11/01 03:56:44;;;;;;;;;;;12.60;99.90;;;;;;5056241;28;19920;-80
2022/11/01 03:59:10;;;;;;;;;;;12.60;99.90;;;;;;5052509;28;19913;-81
2022/11/01 04:01:35;;;;;;;;;;;12.60;99.90;;;;;;5065101;28;19927;-80
2022/11/01 04:04:01;;;;;;;;;;;12.60;99.90;;;;;;5058420;28;20410;-79
2022/11/01 04:06:27;;;;;;;;;;;12.60;99.90;;;;;;5060383;28;19912;-80
2022/11/01 04:08:52;;;;;;;;;;;12.60;99.90;;;;;;5057154;28;19951;-80
2022/11/01 04:11:17;;;;;;;;;;;12.60;99.90;;;;;;5065053;28;19908;-81
2022/11/01 04:13:43;;;;;;;;;;;12.70;99.90;;;;;;5056454;28;20288;-80
2022/11/01 04:21:40;;;;;;;;;;;12.70;99.90;;;;;;5056884;28;19916;-79
2022/11/01 04:24:05;;;;;;;;;;;12.70;99.80;;;;;;5059878;28;19904;-80
2022/11/01 04:26:31;;;;;;;;;;;12.70;99.90;;;;;;5059020;28;20353;-80
2022/11/01 04:28:56;;;;;;;;;;;12.60;99.70;;;;;;5066710;28;19913;-80
2022/11/01 04:31:27;;;;;;;;;;;12.70;99.90;;;;;;5063803;28;19909;-81
2022/11/01 04:33:52;;;;;;;;;;;12.70;99.80;;;;;;5058718;28;19916;-80
2022/11/01 04:36:18;;;;;;;;;;;12.70;99.70;;;;;;5064760;28;19963;-80
2022/11/01 04:38:43;;;;;;;;;;;12.70;99.70;;;;;;5063277;28;19916;-80
2022/11/01 04:41:09;;;;;;;;;;;12.80;99.70;;;;;;5052721;28;19962;-80
2022/11/01 04:43:34;;;;;;;;;;;12.80;99.50;;;;;;5059652;28;19916;-79
2022/11/01 04:45:59;;;;;;;;;;;12.80;99.50;;;;;;5064554;28;19913;-80
2022/11/01 04:48:26;;;;;;;;;;;12.80;99.50;;;;;;5056253;28;19919;-80
2022/11/01 04:50:52;;;;;;;;;;;12.90;99.40;;;;;;5065630;28;20349;-80
2022/11/01 04:53:17;;;;;;;;;;;12.90;99.30;;;;;;5060706;28;19919;-80
2022/11/01 04:55:43;;;;;;;;;;;12.90;99.20;;;;;;5057815;28;19912;-80
2022/11/01 04:58:09;;;;;;;;;;;13.00;99.00;;;;;;5055886;28;19912;-80
2022/11/01 05:00:35;;;;;;;;;;;13.00;98.80;;;;;;5058939;28;20176;-80
2022/11/01 05:03:04;;;;;;;;;;;13.10;98.50;;;;;;5064838;28;19909;-80
2022/11/01 05:05:30;;;;;;;;;;;13.20;98.20;;;;;;5057027;28;19916;-80
2022/11/01 05:08:05;;;;;;;;;;;13.20;97.70;;;;;;5066530;28;19904;-81
2022/11/01 05:10:31;;;;;;;;;;;13.30;97.70;;;;;;5055114;28;22188;-80
2022/11/01 05:12:57;;;;;;;;;;;13.30;97.20;;;;;;5055857;28;19947;-82
2022/11/01 05:15:22;;;;;;;;;;;13.30;97.30;;;;;;5053534;28;20262;-80
2022/11/01 05:17:48;;;;;;;;;;;13.40;97.10;;;;;;5051780;28;19915;-82
2022/11/01 05:20:13;;;;;;;;;;;13.40;97.00;;;;;;5056644;28;19912;-80
2022/11/01 05:22:38;;;;;;;;;;;13.30;97.00;;;;;;5068351;28;19914;-81
2022/11/01 05:25:04;;;;;;;;;;;13.40;97.00;;;;;;5053734;28;20433;-80
2022/11/01 05:27:30;;;;;;;;;;;13.50;96.70;;;;;;5060406;28;19909;-80
2022/11/01 05:29:55;;;;;;;;;;;13.50;96.60;;;;;;5060818;28;20006;-74
2022/11/01 05:32:21;;;;;;;;;;;13.40;96.60;;;;;;5056596;28;19912;-74
2022/11/01 05:34:48;;;;;;;;;;;13.40;96.60;;;;;;5057328;28;19908;-73
2022/11/01 05:37:14;;;;;;;;;;;13.50;96.60;;;;;;5055981;28;20327;-71
2022/11/01 05:39:40;;;;;;;;;;;13.50;96.60;;;;;;5053622;28;19923;-72
2022/11/01 05:42:05;;;;;;;;;;;13.50;96.40;;;;;;5059770;28;19916;-71
2022/11/01 05:44:31;;;;;;;;;;;13.50;96.40;;;;;;5061318;28;20264;-72
2022/11/01 05:46:56;;;;;;;;;;;13.50;96.30;;;;;;5054395;28;19908;-71
2022/11/01 05:49:21;;;;;;;;;;;13.50;96.30;;;;;;5053002;28;19908;-73
2022/11/01 05:51:47;;;;;;;;;;;13.50;96.30;;;;;;5056878;28;19908;-73
2022/11/01 05:54:12;;;;;;;;;;;13.50;96.00;;;;;;5057832;28;19909;-70
2022/11/01 05:56:38;;;;;;;;;;;13.50;95.80;;;;;;5058462;28;20256;-69
2022/11/01 05:59:03;;;;;;;;;;;13.60;95.80;;;;;;5060975;28;20352;-70
2022/11/01 06:01:29;;;;;;;;;;;13.60;95.70;;;;;;5054996;28;19950;-70
2022/11/01 06:03:54;;;;;;;;;;;13.60;95.50;;;;;;5055390;28;19965;-71
2022/11/01 06:06:19;;;;;;;;;;;13.60;95.40;;;;;;5058783;28;19905;-70
2022/11/01 06:08:45;;;;;;;;;;;13.60;95.40;;;;;;5063461;28;19916;-70
2022/11/01 06:11:11;;;;;;;;;;;13.60;95.40;;;;;;5061931;28;19916;-73
2022/11/01 06:13:36;;;;;;;;;;;13.60;95.50;;;;;;5059453;28;19915;-71
2022/11/01 06:16:03;;;;;;;;;;;13.60;95.40;;;;;;5064480;28;19912;-69
2022/11/01 06:18:28;;;;;;;;;;;13.60;95.60;;;;;;5054715;28;19916;-70
2022/11/01 06:20:55;;;;;;;;;;;13.50;95.60;;;;;;5058225;28;19935;-71
2022/11/01 06:23:20;;;;;;;;;;;13.50;95.80;;;;;;5056725;28;19908;-68
2022/11/01 06:25:46;;;;;;;;;;;13.50;95.70;;;;;;5069830;28;19931;-68
2022/11/01 06:28:11;;;;;;;;;;;13.50;95.80;;;;;;5061964;28;19966;-69
2022/11/01 06:30:37;;;;;;;;;;;13.50;95.80;;;;;;5051651;28;19962;-71
2022/11/01 06:33:03;;;;;;;;;;;13.50;95.70;;;;;;5058520;28;20007;-70
2022/11/01 06:35:29;;;;;;;;;;;13.60;95.50;;;;;;5064561;28;20002;-68
2022/11/01 06:37:54;;;;;;;;;;;13.60;95.40;;;;;;5062392;28;20357;-68
2022/11/01 06:40:19;;;;;;;;;;;13.60;95.20;;;;;;5071573;28;19912;-68
2022/11/01 06:42:45;;;;;;;;;;;13.60;95.20;;;;;;5061149;28;19916;-68
2022/11/01 06:45:11;;;;;;;;;;;13.60;95.40;;;;;;5053085;28;19912;-71
2022/11/01 06:47:36;;;;;;;;;;;13.60;95.30;;;;;;5064633;28;20375;-72
2022/11/01 06:50:02;;;;;;;;;;;13.60;95.30;;;;;;5058385;28;19919;-74
2022/11/01 06:52:27;;;;;;;;;;;13.60;95.30;;;;;;5060116;28;19954;-71
2022/11/01 06:54:53;;;;;;;;;;;13.60;95.40;;;;;;5058556;28;19948;-71
2022/11/01 06:57:18;;;;;;;;;;;13.60;95.30;;;;;;5054098;28;20321;-71
2022/11/01 06:59:43;;;;;;;;;;;13.60;95.30;;;;;;5057834;28;19919;-70
2022/11/01 07:02:09;;;;;;;;;;;13.60;95.40;;;;;;5069446;28;19915;-72
2022/11/01 07:04:35;;;;;;;;;;;13.60;95.30;;;;;;5054037;28;19912;-71
2022/11/01 07:07:01;;;;;;;;;;;13.60;95.40;;;;;;5052695;28;20003;-71
2022/11/01 07:09:26;;;;;;;;;;;13.60;95.30;;;;;;5066875;28;20318;-70
2022/11/01 07:11:52;;;;;;;;;;;13.60;95.10;;;;;;5058061;28;19931;-70
2022/11/01 07:14:17;;;;;;;;;;;13.60;95.00;;;;;;5058593;28;19912;-72
2022/11/01 07:16:43;;;;;;;;;;;13.60;95.10;;;;;;5065615;28;19912;-71
2022/11/01 07:19:08;;;;;;;;;;;13.70;95.10;;;;;;5065753;28;20303;-71
2022/11/01 07:21:34;;;;;;;;;;;13.90;94.70;;;;;;5053596;28;19934;-71
2022/11/01 07:23:59;;;;;;;;;;;14.00;94.30;;;;;;5060473;28;20254;-71
2022/11/01 07:26:25;;;;;;;;;;;14.10;93.70;;;;;;5065374;28;20288;-70
2022/11/01 07:28:50;;;;;;;;;;;14.20;93.50;;;;;;5068636;28;19911;-72
2022/11/01 07:31:15;;;;;;;;;;;14.20;93.30;;;;;;5057756;28;19913;-72
2022/11/01 07:33:41;;;;;;;;;;;14.40;92.70;;;;;;5065602;28;19982;-71
2022/11/01 07:36:07;;;;;;;;;;;14.40;92.50;;;;;;5050133;28;20402;-72
2022/11/01 07:38:32;;;;;;;;;;;14.40;92.50;;;;;;5058959;28;19912;-70
2022/11/01 07:40:58;;;;;;;;;;;14.50;92.50;;;;;;5063365;28;19946;-73
2022/11/01 07:43:23;;;;;;;;;;;14.50;92.30;;;;;;5058820;28;19920;-71
2022/11/01 07:45:49;;;;;;;;;;;14.50;92.40;;;;;;5067273;28;19904;-70
2022/11/01 07:48:15;;;;;;;;;;;14.50;92.30;;;;;;5062023;28;19912;-73
2022/11/01 07:50:41;;;;;;;;;;;14.60;92.00;;;;;;5060984;28;20318;-70
2022/11/01 07:53:16;;;;;;;;;;;14.70;91.70;;;;;;5059099;28;19909;-70
2022/11/01 07:55:42;;;;;;;;;;;14.70;91.80;;;;;;5065982;28;19915;-71
2022/11/01 07:58:08;;;;;;;;;;;14.60;92.00;;;;;;5054667;28;19920;-70
2022/11/01 08:00:34;;;;;;;;;;;14.50;92.10;;;;;;5065690;28;20307;-75
2022/11/01 08:03:03;;;;;;;;;;;14.60;92.10;;;;;;5060441;28;19934;-70
2022/11/01 08:05:30;;;;;;;;;;;14.60;92.00;;;;;;5063508;28;19908;-73
2022/11/01 08:07:56;;;;;;;;;;;14.60;92.00;;;;;;5057949;28;20004;-72
2022/11/01 08:10:21;;;;;;;;;;;14.70;92.00;;;;;;5055106;28;19991;-73
2022/11/01 08:12:47;;;;;;;;;;;14.80;91.50;;;;;;5054730;28;20278;-71
2022/11/01 08:15:12;;;;;;;;;;;14.90;91.40;;;;;;5055516;28;20344;-70
2022/11/01 08:17:38;;;;;;;;;;;15.00;90.90;;;;;;5050924;28;19916;-70
2022/11/01 08:20:03;;;;;;;;;;;15.00;90.90;;;;;;5061971;28;19916;-70
2022/11/01 08:22:29;;;;;;;;;;;15.00;91.00;;;;;;5061535;28;19954;-70
2022/11/01 08:24:54;;;;;;;;;;;15.10;90.50;;;;;;5061116;28;19909;-70
2022/11/01 08:27:20;;;;;;;;;;;15.10;90.50;;;;;;5052515;28;19905;-70
2022/11/01 08:29:45;;;;;;;;;;;15.20;90.30;;;;;;5060271;28;19912;-72
2022/11/01 08:32:11;;;;;;;;;;;15.30;90.40;;;;;;5064631;28;19913;-70
2022/11/01 08:34:36;;;;;;;;;;;15.30;90.50;;;;;;5064017;28;19927;-71
2022/11/01 08:37:01;;;;;;;;;;;15.40;89.70;;;;;;5062291;28;20016;-71
2022/11/01 08:39:27;;;;;;;;;;;15.50;89.90;;;;;;5052194;28;20372;-72
2022/11/01 08:41:52;;;;;;;;;;;15.40;89.50;;;;;;5059223;28;19908;-70
2022/11/01 08:44:19;;;;;;;;;;;15.50;89.10;;;;;;5055236;28;19947;-71
2022/11/01 08:46:45;;;;;;;;;;;15.60;89.50;;;;;;5050965;28;19909;-71
2022/11/01 08:49:13;;;;;;;;;;;15.60;89.60;;;;;;5056455;28;19950;-71
2022/11/01 08:51:39;;;;;;;;;;;15.60;88.90;;;;;;5052286;28;19995;-70
2022/11/01 08:54:06;;;;;;;;;;;15.80;89.20;;;;;;5068700;28;20054;-70
2022/11/01 08:56:32;;;;;;;;;;;15.90;88.90;;;;;;5059171;28;19913;-72
2022/11/01 08:58:57;;;;;;;;;;;16.00;88.70;;;;;;5059135;28;20253;-70
2022/11/01 09:01:25;;;;;;;;;;;16.00;88.10;;;;;;5070762;28;19908;-72
2022/11/01 09:03:57;;;;;;;;;;;16.10;87.50;;;;;;5059594;28;19916;-72
2022/11/01 09:06:23;;;;;;;;;;;16.30;88.00;;;;;;5065679;28;20006;-73
2022/11/01 09:08:49;;;;;;;;;;;16.40;87.50;;;;;;5068159;28;20376;-72
2022/11/01 09:11:15;;;;;;;;;;;16.50;86.90;;;;;;5056835;28;20295;-72
2022/11/01 09:13:40;;;;;;;;;;;16.40;87.00;;;;;;5061587;28;19905;-71
2022/11/01 09:16:06;;;;;;;;;;;16.40;87.40;;;;;;5035857;28;19908;-71
2022/11/01 09:18:32;;;;;;;;;;;16.40;87.00;;;;;;5058758;28;19916;-73
2022/11/01 09:20:57;;;;;;;;;;;16.40;86.90;;;;;;5057533;28;19908;-73
2022/11/01 09:23:22;;;;;;;;;;;16.40;86.90;;;;;;5061902;28;19944;-73
2022/11/01 09:25:48;;;;;;;;;;;16.30;87.20;;;;;;5055215;28;19909;-72
2022/11/01 09:28:13;;;;;;;;;;;16.30;86.70;;;;;;5062259;28;19999;-72
2022/11/01 09:30:39;;;;;;;;;;;16.30;86.70;;;;;;5060849;28;19954;-76
2022/11/01 09:33:05;;;;;;;;;;;16.30;86.60;;;;;;5057931;28;20365;-73
2022/11/01 09:35:31;;;;;;;;;;;16.30;86.90;;;;;;5056893;28;19915;-76
2022/11/01 09:38:00;;;;;;;;;;;16.20;87.10;;;;;;5061907;28;19998;-72
2022/11/01 09:40:27;;;;;;;;;;;16.30;87.60;;;;;;5061984;28;20357;-72
2022/11/01 09:42:52;;;;;;;;;;;16.30;87.00;;;;;;5057900;28;20014;-72
2022/11/01 09:45:20;;;;;;;;;;;16.30;86.70;;;;;;5072769;28;19995;-72
2022/11/01 09:47:51;;;;;;;;;;;16.30;86.60;;;;;;5053999;28;20254;-73
2022/11/01 09:50:21;;;;;;;;;;;16.20;86.90;;;;;;5066589;28;19904;-72
2022/11/01 09:52:48;;;;;;;;;;;16.20;86.70;;;;;;5062858;28;19908;-71
2022/11/01 09:55:14;;;;;;;;;;;16.20;86.20;;;;;;5065357;28;19966;-72
2022/11/01 09:57:46;;;;;;;;;;;16.30;86.60;;;;;;5064921;28;19912;-72
2022/11/01 10:00:13;;;;;;;;;;;16.20;86.50;;;;;;5057352;28;19920;-72
2022/11/01 10:02:55;;;;;;;;;;;16.20;86.80;;;;;;5053913;28;19909;-71
2022/11/01 10:05:39;;;;;;;;;;;16.10;87.10;;;;;;5062116;28;19911;-74
2022/11/01 10:08:28;;;;;;;;;;;16.10;86.70;;;;;;5058047;28;20435;-72
2022/11/01 10:11:07;;;;;;;;;;;16.10;87.30;;;;;;5008541;28;19912;-71
2022/11/01 10:13:39;;;;;;;;;;;16.00;87.60;;;;;;5060726;28;19919;-72
2022/11/01 10:16:18;;;;;;;;;;;16.00;87.50;;;;;;5053941;28;19908;-71
2022/11/01 10:18:59;;;;;;;;;;;16.10;87.00;;;;;;5054749;28;19915;-74
2022/11/01 10:21:26;;;;;;;;;;;16.60;85.60;;;;;;5062308;28;19908;-72
2022/11/01 10:23:52;;;;;;;;;;;17.20;84.80;;;;;;5071425;28;19913;-72
2022/11/01 10:26:24;;;;;;;;;;;17.50;83.40;;;;;;5043192;28;19911;-72
2022/11/01 10:28:49;;;;;;;;;;;17.70;82.60;;;;;;5071481;28;19908;-72
2022/11/01 10:31:16;;;;;;;;;;;17.60;82.80;;;;;;5063972;28;19994;-72
2022/11/01 10:33:52;;;;;;;;;;;17.40;82.40;;;;;;5063463;28;19923;-74
2022/11/01 10:36:38;;;;;;;;;;;17.00;82.80;;;;;;5063629;28;19909;-72
2022/11/01 10:39:28;;;;;;;;;;;16.70;83.60;;;;;;5056330;28;19994;-72
2022/11/01 10:41:53;;;;;;;;;;;16.40;83.80;;;;;;5058494;28;19912;-71
2022/11/01 10:44:21;;;;;;;;;;;16.20;81.90;;;;;;5074076;28;19935;-71
2022/11/01 10:46:47;;;;;;;;;;;16.50;79.10;;;;;;5057771;28;19908;-72
2022/11/01 10:49:18;;;;;;;;;;;16.70;77.60;;;;;;5062869;28;19904;-72
2022/11/01 10:51:45;;;;;;;;;;;16.90;76.60;;;;;;5071884;28;19912;-72
2022/11/01 10:54:19;;;;;;;;;;;17.00;74.80;;;;;;5071753;28;19934;-71
2022/11/01 10:56:46;;;;;;;;;;;17.00;72.80;;;;;;5060344;28;19912;-71
2022/11/01 10:59:20;;;;;;;;;;;17.20;70.40;;;;;;5054683;28;19913;-71
2022/11/01 11:01:47;;;;;;;;;;;17.40;71.10;;;;;;5053904;28;19915;-71
2022/11/01 11:04:14;;;;;;;;;;;17.40;68.20;;;;;;5065822;28;19953;-73
2022/11/01 11:06:41;;;;;;;;;;;17.30;68.20;;;;;;5071569;28;19919;-70
2022/11/01 11:09:11;;;;;;;;;;;17.20;68.40;;;;;;5044905;28;19995;-71
2022/11/01 11:11:40;;;;;;;;;;;17.30;67.90;;;;;;5054429;28;19911;-71
2022/11/01 11:14:07;;;;;;;;;;;17.50;67.60;;;;;;5058096;28;19992;-73
2022/11/01 11:16:44;;;;;;;;;;;17.40;66.60;;;;;;5055489;28;19971;-73
2022/11/01 11:19:10;;;;;;;;;;;17.30;66.10;;;;;;5051607;28;19917;-73
2022/11/01 11:21:36;;;;;;;;;;;17.50;65.90;;;;;;5055193;28;19913;-71
2022/11/01 11:24:02;;;;;;;;;;;17.50;63.70;;;;;;5055780;28;20364;-69
2022/11/01 11:26:34;;;;;;;;;;;17.60;63.40;;;;;;5056545;28;19912;-70
2022/11/01 11:29:00;;;;;;;;;;;17.50;63.70;;;;;;5065036;28;19912;-70
2022/11/01 11:31:30;;;;;;;;;;;17.70;64.30;;;;;;5057545;28;20347;-71
2022/11/01 11:34:15;;;;;;;;;;;17.70;63.90;;;;;;5055850;28;20395;-70
2022/11/01 11:36:42;;;;;;;;;;;17.80;62.40;;;;;;5064646;28;19908;-71
2022/11/01 11:39:22;;;;;;;;;;;18.10;61.60;;;;;;5066719;28;19912;-71
2022/11/01 11:41:47;;;;;;;;;;;18.30;60.70;;;;;;5035629;28;19911;-74
2022/11/01 11:44:31;;;;;;;;;;;18.50;61.40;;;;;;5053771;28;19908;-72
2022/11/01 11:46:57;;;;;;;;;;;18.40;59.70;;;;;;5059700;28;20408;-74
2022/11/01 11:49:26;;;;;;;;;;;18.60;60.30;;;;;;5059661;28;20070;-72
2022/11/01 11:51:52;;;;;;;;;;;18.80;59.60;;;;;;5061081;28;19909;-73
2022/11/01 11:54:30;;;;;;;;;;;18.90;59.90;;;;;;5065375;28;19928;-72
2022/11/01 11:57:14;;;;;;;;;;;18.50;58.60;;;;;;5061186;28;20007;-72
2022/11/01 11:59:40;;;;;;;;;;;18.30;56.80;;;;;;5061784;28;19913;-72
2022/11/01 12:02:12;;;;;;;;;;;18.30;56.90;;;;;;5051463;28;19915;-72
2022/11/01 12:04:51;;;;;;;;;;;18.50;56.70;;;;;;5061968;28;19955;-71
2022/11/01 12:07:26;;;;;;;;;;;18.40;57.20;;;;;;5059209;28;19920;-71
2022/11/01 12:09:52;;;;;;;;;;;18.30;57.00;;;;;;5054957;28;19916;-73
2022/11/01 12:12:17;;;;;;;;;;;18.50;57.60;;;;;;5046505;28;19916;-74
2022/11/01 12:14:43;;;;;;;;;;;18.50;57.20;;;;;;5056077;28;19908;-72
2022/11/01 12:17:27;;;;;;;;;;;18.40;55.70;;;;;;5060689;28;20003;-71
2022/11/01 12:20:00;;;;;;;;;;;18.60;56.80;;;;;;5053775;28;19908;-70
2022/11/01 12:22:30;;;;;;;;;;;18.70;56.10;;;;;;5056126;28;19918;-70
2022/11/01 12:24:58;;;;;;;;;;;18.70;56.00;;;;;;5056928;28;20473;-70
2022/11/01 12:27:24;;;;;;;;;;;18.50;55.50;;;;;;5059839;28;20336;-70
2022/11/01 12:29:52;;;;;;;;;;;18.50;56.00;;;;;;5053317;28;20349;-71
2022/11/01 12:32:21;;;;;;;;;;;18.60;55.20;;;;;;5057976;28;19904;-70
2022/11/01 12:34:49;;;;;;;;;;;18.60;53.70;;;;;;5051851;28;20375;-71
2022/11/01 12:37:19;;;;;;;;;;;18.70;53.30;;;;;;5052768;28;20326;-71
2022/11/01 12:39:49;;;;;;;;;;;18.50;53.80;;;;;;5061024;28;19913;-72
2022/11/01 12:42:27;;;;;;;;;;;18.60;53.50;;;;;;5058555;28;20134;-71
2022/11/01 12:45:14;;;;;;;;;;;18.60;53.10;;;;;;5061005;28;19908;-73
2022/11/01 12:47:42;;;;;;;;;;;18.70;53.00;;;;;;5051967;28;20321;-71
2022/11/01 12:50:22;;;;;;;;;;;18.50;52.70;;;;;;5045189;28;20245;-71
2022/11/01 12:52:59;;;;;;;;;;;18.60;53.40;;;;;;5054043;28;19916;-73
2022/11/01 12:55:33;;;;;;;;;;;18.70;53.60;;;;;;5068890;28;19943;-72
2022/11/01 12:57:59;;;;;;;;;;;18.70;53.30;;;;;;5051785;28;19904;-74
2022/11/01 13:00:27;;;;;;;;;;;18.90;53.30;;;;;;5059898;28;19927;-72
2022/11/01 13:03:07;;;;;;;;;;;18.80;53.40;;;;;;5052511;28;19967;-72
2022/11/01 13:05:51;;;;;;;;;;;18.80;53.30;;;;;;5057541;28;20328;-72
2022/11/01 13:08:29;;;;;;;;;;;18.60;53.80;;;;;;5047238;28;20368;-72
2022/11/01 13:10:56;;;;;;;;;;;18.60;54.20;;;;;;5052707;28;19963;-73
2022/11/01 13:13:35;;;;;;;;;;;18.40;54.40;;;;;;5058515;28;19912;-73
2022/11/01 13:16:11;;;;;;;;;;;18.70;55.10;;;;;;5054780;28;20015;-74
2022/11/01 13:18:43;;;;;;;;;;;19.00;54.70;;;;;;5050602;28;19939;-72
2022/11/01 13:21:33;;;;;;;;;;;19.10;54.00;;;;;;5059890;28;19999;-73
2022/11/01 13:24:17;;;;;;;;;;;19.40;53.60;;;;;;5041151;28;20463;-72
2022/11/01 13:26:49;;;;;;;;;;;19.60;53.60;;;;;;5058663;28;19915;-71
2022/11/01 13:29:27;;;;;;;;;;;19.80;53.60;;;;;;5069826;28;19947;-73
2022/11/01 13:32:12;;;;;;;;;;;20.00;52.90;;;;;;5044132;28;19915;-72
2022/11/01 13:34:57;;;;;;;;;;;19.70;53.40;;;;;;5052736;28;19916;-74
2022/11/01 13:37:54;;;;;;;;;;;19.30;54.40;;;;;;5063769;28;19920;-72
2022/11/01 13:40:24;;;;;;;;;;;18.90;55.50;;;;;;5006712;28;19913;-72
2022/11/01 13:43:09;;;;;;;;;;;18.30;56.50;;;;;;5059234;28;19912;-72
2022/11/01 13:45:57;;;;;;;;;;;18.00;57.90;;;;;;5050846;28;19908;-70
2022/11/01 13:48:43;;;;;;;;;;;17.70;58.90;;;;;;5056895;28;19905;-71
2022/11/01 13:51:22;;;;;;;;;;;18.00;59.50;;;;;;5054408;28;19916;-71
2022/11/01 13:53:53;;;;;;;;;;;17.60;59.30;;;;;;5054452;28;20011;-73
2022/11/01 13:56:22;;;;;;;;;;;17.30;60.60;;;;;;5055143;28;20361;-71
2022/11/01 13:58:47;;;;;;;;;;;17.30;61.30;;;;;;5057243;28;19909;-71
2022/11/01 14:01:27;;;;;;;;;;;17.40;61.30;;;;;;5055745;28;19912;-71
2022/11/01 14:04:12;;;;;;;;;;;17.80;60.50;;;;;;5051063;28;20373;-71
2022/11/01 14:06:38;;;;;;;;;;;17.90;59.60;;;;;;5057148;28;19904;-71
2022/11/01 14:09:18;;;;;;;;;;;18.50;58.90;;;;;;5053798;28;20353;-71
2022/11/01 14:11:45;;;;;;;;;;;18.60;58.30;;;;;;5052155;28;19975;-72
2022/11/01 14:14:28;;;;;;;;;;;18.50;57.70;;;;;;5064270;28;19942;-71
2022/11/01 14:17:17;;;;;;;;;;;18.50;58.40;;;;;;5055625;28;19908;-71
2022/11/01 14:19:43;;;;;;;;;;;18.10;58.60;;;;;;5041611;28;20276;-71
2022/11/01 14:22:27;;;;;;;;;;;17.60;60.70;;;;;;5051899;28;19920;-71
2022/11/01 14:24:52;;;;;;;;;;;17.30;62.00;;;;;;5051689;28;19918;-72
2022/11/01 14:27:32;;;;;;;;;;;17.00;62.90;;;;;;5056050;28;20351;-74
2022/11/01 14:29:58;;;;;;;;;;;16.80;64.40;;;;;;5059893;28;19916;-71
2022/11/01 14:32:25;;;;;;;;;;;16.60;65.30;;;;;;5064503;28;19916;-71
2022/11/01 14:34:58;;;;;;;;;;;16.40;65.40;;;;;;5073298;28;19904;-71